Time;durP1;ratioP1;P1;durP2;ratioP2;P2;SDS_P1;SDS_P2;PMS_P1;PMS_P2;Temp;Humidity;BMP_temperature;BMP_pressure;BME280_temperature;BME280_humidity;BME280_pressure;Samples;Min_cycle;Max_cycle;Signal;HPM_P1;HPM_P2
2022/04/14 00:01:09;;;;;;;;;;;;;;;;;;5050175;28;1345;-71
2022/04/14 00:03:36;;;;;;;;;;;;;;;;;;5050498;28;786;-71
2022/04/14 00:06:02;;;;;;;;;;;;;;;;;;5050403;28;771;-71
2022/04/14 00:08:28;;;;;;;;;;;;;;;;;;5049928;28;1977;-71
2022/04/14 00:10:54;;;;;;;;;;;;;;;;;;5049926;28;1324;-72
2022/04/14 00:13:22;;;;;;;;;;;;;;;;;;5050030;28;1064;-72
2022/04/14 00:15:48;;;;;;;;;;;;;;;;;;5050231;28;801;-71
2022/04/14 00:18:14;;;;;;;;;;;;;;;;;;5049796;28;1052;-72
2022/04/14 00:20:40;;;;;;;;;;;;;;;;;;5050227;28;1063;-71
2022/04/14 00:23:06;;;;;;;;;;;;;;;;;;5049927;28;1337;-72
2022/04/14 00:25:32;;;;;;;;;;;;;;;;;;5050122;28;790;-71
2022/04/14 00:27:59;;;;;;;;;;;;;;;;;;5049653;28;1973;-70
2022/04/14 00:30:27;;;;;;;;;;;;;;;;;;5049822;28;961;-72
2022/04/14 00:32:53;;;;;;;;;;;;;;;;;;5050177;28;1347;-71
2022/04/14 00:35:19;;;;;;;;;;;;;;;;;;5048514;28;1417;-72
2022/04/14 00:37:45;;;;;;;;;;;;;;;;;;5049834;28;1076;-71
2022/04/14 00:40:13;;;;;;;;;;;;;;;;;;5049879;28;945;-72
2022/04/14 00:42:39;;;;;;;;;;;;;;;;;;5049956;28;1274;-73
2022/04/14 00:45:06;;;;;;;;;;;;;;;;;;5050030;28;775;-72
2022/04/14 00:47:34;;;;;;;;;;;;;;;;;;5049785;28;1979;-72
2022/04/14 00:50:00;;;;;;;;;;;;;;;;;;5049786;28;1104;-72
2022/04/14 00:52:26;;;;;;;;;;;;;;;;;;5049964;28;1274;-72
2022/04/14 00:54:53;;;;;;;;;;;;;;;;;;5049950;28;941;-73
2022/04/14 00:57:19;;;;;;;;;;;;;;;;;;5049659;28;1001;-73
2022/04/14 00:59:45;;;;;;;;;;;;;;;;;;5049484;28;1480;-72
2022/04/14 01:02:11;;;;;;;;;;;;;;;;;;5051094;28;1380;-72
2022/04/14 01:04:39;;;;;;;;;;;;;;;;;;5053308;28;1108;-72
2022/04/14 01:07:06;;;;;;;;;;;;;;;;;;5053236;28;1918;-73
2022/04/14 01:09:32;;;;;;;;;;;;;;;;;;5053326;28;1055;-72
2022/04/14 01:11:59;;;;;;;;;;;;;;;;;;5053357;28;1352;-74
2022/04/14 01:14:25;;;;;;;;;;;;;;;;;;5053777;28;897;-73
2022/04/14 01:16:51;;;;;;;;;;;;;;;;;;5053208;28;948;-72
2022/04/14 01:19:18;;;;;;;;;;;;;;;;;;5053629;28;1063;-72
2022/04/14 01:21:46;;;;;;;;;;;;;;;;;;5053123;28;1318;-72
2022/04/14 01:24:14;;;;;;;;;;;;;;;;;;5052912;28;987;-72
2022/04/14 01:26:40;;;;;;;;;;;;;;;;;;5051618;28;1981;-72
2022/04/14 01:29:06;;;;;;;;;;;;;;;;;;5053078;28;902;-72
2022/04/14 01:31:33;;;;;;;;;;;;;;;;;;5053041;28;1297;-72
2022/04/14 01:33:59;;;;;;;;;;;;;;;;;;5052878;28;826;-72
2022/04/14 01:36:25;;;;;;;;;;;;;;;;;;5052926;28;1000;-73
2022/04/14 01:38:51;;;;;;;;;;;;;;;;;;5053109;28;799;-72
2022/04/14 01:41:19;;;;;;;;;;;;;;;;;;5052737;28;1293;-72
2022/04/14 01:43:45;;;;;;;;;;;;;;;;;;5052737;28;1040;-74
2022/04/14 01:46:11;;;;;;;;;;;;;;;;;;5052476;28;877;-73
2022/04/14 01:48:38;;;;;;;;;;;;;;;;;;5052797;28;1918;-73
2022/04/14 01:51:04;;;;;;;;;;;;;;;;;;5052578;28;1367;-72
2022/04/14 01:53:30;;;;;;;;;;;;;;;;;;5052722;28;1067;-72
2022/04/14 01:55:56;;;;;;;;;;;;;;;;;;5048532;28;1695;-72
2022/04/14 01:58:24;;;;;;;;;;;;;;;;;;5052386;28;994;-71
2022/04/14 02:00:50;;;;;;;;;;;;;;;;;;5052280;28;1321;-73
2022/04/14 02:03:16;;;;;;;;;;;;;;;;;;5052458;28;1056;-72
2022/04/14 02:05:42;;;;;;;;;;;;;;;;;;5052683;28;849;-72
2022/04/14 02:08:09;;;;;;;;;;;;;;;;;;5051864;28;1914;-72
2022/04/14 02:10:35;;;;;;;;;;;;;;;;;;5051164;28;1175;-72
2022/04/14 02:13:02;;;;;;;;;;;;;;;;;;5051050;28;1658;-72
2022/04/14 02:15:29;;;;;;;;;;;;;;;;;;5051391;28;865;-72
2022/04/14 02:17:57;;;;;;;;;;;;;;;;;;5051960;28;1123;-72
2022/04/14 02:20:24;;;;;;;;;;;;;;;;;;5052005;28;830;-72
2022/04/14 02:22:50;;;;;;;;;;;;;;;;;;5052067;28;1290;-72
2022/04/14 02:25:16;;;;;;;;;;;;;;;;;;5051895;28;1067;-70
2022/04/14 02:27:42;;;;;;;;;;;;;;;;;;5051788;28;1914;-70
2022/04/14 02:30:09;;;;;;;;;;;;;;;;;;5051962;28;1084;-71
2022/04/14 02:32:36;;;;;;;;;;;;;;;;;;5051656;28;1341;-70
2022/04/14 02:35:04;;;;;;;;;;;;;;;;;;5051957;28;1119;-71
2022/04/14 02:37:30;;;;;;;;;;;;;;;;;;5051565;28;945;-71
2022/04/14 02:39:56;;;;;;;;;;;;;;;;;;5051864;28;874;-71
2022/04/14 02:42:22;;;;;;;;;;;;;;;;;;5051706;28;1292;-71
2022/04/14 02:44:48;;;;;;;;;;;;;;;;;;5051753;28;1075;-70
2022/04/14 02:47:15;;;;;;;;;;;;;;;;;;5051168;28;1914;-71
2022/04/14 02:49:42;;;;;;;;;;;;;;;;;;5051620;28;1130;-70
2022/04/14 02:52:08;;;;;;;;;;;;;;;;;;5051400;28;1300;-70
2022/04/14 02:54:37;;;;;;;;;;;;;;;;;;5053450;28;945;-70
2022/04/14 02:57:04;;;;;;;;;;;;;;;;;;5052563;28;842;-70
2022/04/14 02:59:30;;;;;;;;;;;;;;;;;;5051574;28;1118;-69
2022/04/14 03:01:56;;;;;;;;;;;;;;;;;;5051131;28;1324;-70
2022/04/14 03:04:22;;;;;;;;;;;;;;;;;;5051387;28;1075;-70
2022/04/14 03:06:50;;;;;;;;;;;;;;;;;;5050729;28;912;-69
2022/04/14 03:09:16;;;;;;;;;;;;;;;;;;5050683;28;2007;-70
2022/04/14 03:11:42;;;;;;;;;;;;;;;;;;5051075;28;1302;-70
2022/04/14 03:14:09;;;;;;;;;;;;;;;;;;5051293;28;1127;-70
2022/04/14 03:16:35;;;;;;;;;;;;;;;;;;5051024;28;941;-70
2022/04/14 03:19:01;;;;;;;;;;;;;;;;;;5051070;28;1079;-69
2022/04/14 03:21:27;;;;;;;;;;;;;;;;;;5050957;28;1313;-70
2022/04/14 03:23:55;;;;;;;;;;;;;;;;;;5050941;28;2071;-69
2022/04/14 03:26:21;;;;;;;;;;;;;;;;;;5049853;28;834;-70
2022/04/14 03:28:47;;;;;;;;;;;;;;;;;;5050965;28;1976;-70
2022/04/14 03:31:13;;;;;;;;;;;;;;;;;;5051015;28;1298;-70
2022/04/14 03:33:39;;;;;;;;;;;;;;;;;;5050837;28;1016;-70
2022/04/14 03:36:06;;;;;;;;;;;;;;;;;;5050324;28;782;-70
2022/04/14 03:38:33;;;;;;;;;;;;;;;;;;5050842;28;1072;-70
2022/04/14 03:41:02;;;;;;;;;;;;;;;;;;5050367;28;1301;-70
2022/04/14 03:43:29;;;;;;;;;;;;;;;;;;5050763;28;1120;-70
2022/04/14 03:45:55;;;;;;;;;;;;;;;;;;5049653;28;1609;-70
2022/04/14 03:48:21;;;;;;;;;;;;;;;;;;5050131;28;1918;-70
2022/04/14 03:50:47;;;;;;;;;;;;;;;;;;5050697;28;1404;-70
2022/04/14 03:53:13;;;;;;;;;;;;;;;;;;5050147;28;1641;-70
2022/04/14 03:55:40;;;;;;;;;;;;;;;;;;5050152;28;1629;-70
2022/04/14 03:58:07;;;;;;;;;;;;;;;;;;5049730;28;1570;-69
2022/04/14 04:00:33;;;;;;;;;;;;;;;;;;5050499;28;1059;-71
2022/04/14 04:02:59;;;;;;;;;;;;;;;;;;5050047;28;1581;-71
2022/04/14 04:05:26;;;;;;;;;;;;;;;;;;5049728;28;1645;-72
2022/04/14 04:07:52;;;;;;;;;;;;;;;;;;5049710;28;1982;-72
2022/04/14 04:10:18;;;;;;;;;;;;;;;;;;5050282;28;1698;-71
2022/04/14 04:12:44;;;;;;;;;;;;;;;;;;5050385;28;1369;-71
2022/04/14 04:15:12;;;;;;;;;;;;;;;;;;5048867;28;1619;-72
2022/04/14 04:17:38;;;;;;;;;;;;;;;;;;5048589;28;1260;-72
2022/04/14 04:20:05;;;;;;;;;;;;;;;;;;5050108;28;1557;-72
2022/04/14 04:22:33;;;;;;;;;;;;;;;;;;5048477;28;1669;-72
2022/04/14 04:24:59;;;;;;;;;;;;;;;;;;5048489;28;1555;-72
2022/04/14 04:27:25;;;;;;;;;;;;;;;;;;5049721;28;1569;-72
2022/04/14 04:29:51;;;;;;;;;;;;;;;;;;5049674;28;1969;-70
2022/04/14 04:32:19;;;;;;;;;;;;;;;;;;5049892;28;1574;-71
2022/04/14 04:34:45;;;;;;;;;;;;;;;;;;5050236;28;878;-71
2022/04/14 04:37:11;;;;;;;;;;;;;;;;;;5050582;28;1640;-71
2022/04/14 04:39:38;;;;;;;;;;;;;;;;;;5050358;28;1654;-70
2022/04/14 04:42:04;;;;;;;;;;;;;;;;;;5053771;28;1300;-70
2022/04/14 04:44:30;;;;;;;;;;;;;;;;;;5054023;28;734;-70
2022/04/14 04:46:56;;;;;;;;;;;;;;;;;;5053875;28;1068;-70
2022/04/14 04:49:24;;;;;;;;;;;;;;;;;;5053842;28;1979;-70
2022/04/14 04:51:50;;;;;;;;;;;;;;;;;;5053793;28;1305;-71
2022/04/14 04:54:16;;;;;;;;;;;;;;;;;;5053413;28;935;-71
2022/04/14 04:56:42;;;;;;;;;;;;;;;;;;5053094;28;1223;-70
2022/04/14 04:59:09;;;;;;;;;;;;;;;;;;5053240;28;1232;-71
2022/04/14 05:01:35;;;;;;;;;;;;;;;;;;5053125;28;1403;-70
2022/04/14 05:04:01;;;;;;;;;;;;;;;;;;5053231;28;1281;-70
2022/04/14 05:06:29;;;;;;;;;;;;;;;;;;5052396;28;1270;-70
2022/04/14 05:08:55;;;;;;;;;;;;;;;;;;5051837;28;2026;-70
2022/04/14 05:11:21;;;;;;;;;;;;;;;;;;5052752;28;1404;-69
2022/04/14 05:13:47;;;;;;;;;;;;;;;;;;5052822;28;1274;-70
2022/04/14 05:16:13;;;;;;;;;;;;;;;;;;5052905;28;1242;-69
2022/04/14 05:18:40;;;;;;;;;;;;;;;;;;5052554;28;1266;-69
2022/04/14 05:21:06;;;;;;;;;;;;;;;;;;5052441;28;1373;-69
2022/04/14 05:23:33;;;;;;;;;;;;;;;;;;5051676;28;1358;-70
2022/04/14 05:26:00;;;;;;;;;;;;;;;;;;5050238;28;1295;-70
2022/04/14 05:28:26;;;;;;;;;;;;;;;;;;5053229;28;1946;-70
2022/04/14 05:30:52;;;;;;;;;;;;;;;;;;5053530;28;1464;-71
2022/04/14 05:33:18;;;;;;;;;;;;;;;;;;5052951;28;900;-71
2022/04/14 05:35:45;;;;;;;;;;;;;;;;;;5053107;28;1141;-71
2022/04/14 05:38:11;;;;;;;;;;;;;;;;;;5051392;28;1410;-71
2022/04/14 05:40:41;;;;;;;;;;;;;;;;;;5052854;28;1004;-71
2022/04/14 05:43:08;;;;;;;;;;;;;;;;;;5052473;28;1321;-71
2022/04/14 05:45:36;;;;;;;;;;;;;;;;;;5053127;28;885;-71
2022/04/14 05:48:02;;;;;;;;;;;;;;;;;;5051901;28;1918;-71
2022/04/14 05:50:28;;;;;;;;;;;;;;;;;;5051945;28;1067;-72
2022/04/14 05:52:55;;;;;;;;;;;;;;;;;;5052815;28;1384;-72
2022/04/14 05:55:21;;;;;;;;;;;;;;;;;;5052656;28;1079;-70
2022/04/14 05:57:49;;;;;;;;;;;;;;;;;;5069407;22;3704;-69
2022/04/14 06:00:15;;;;;;;;;;;;;;;;;;5068819;28;1079;-69
2022/04/14 06:02:41;;;;;;;;;;;;;;;;;;5071820;28;1173;-70
2022/04/14 06:05:08;;;;;;;;;;;;;;;;;;5072786;28;1020;-70
2022/04/14 06:07:34;;;;;;;;;;;;;;;;;;5068065;28;1309;-70
2022/04/14 06:10:01;;;;;;;;;;;;;;;;;;5034699;28;1990;-70
2022/04/14 06:12:27;;;;;;;;;;;;;;;;;;5052363;28;1104;-70
2022/04/14 06:14:54;;;;;;;;;;;;;;;;;;5052835;28;945;-69
2022/04/14 06:17:20;;;;;;;;;;;;;;;;;;5052245;28;1391;-69
2022/04/14 06:19:47;;;;;;;;;;;;;;;;;;5052891;28;1079;-70
2022/04/14 06:22:13;;;;;;;;;;;;;;;;;;5052079;28;1240;-69
2022/04/14 06:24:39;;;;;;;;;;;;;;;;;;5052157;28;1105;-69
2022/04/14 06:27:05;;;;;;;;;;;;;;;;;;5051599;28;1420;-69
2022/04/14 06:29:32;;;;;;;;;;;;;;;;;;5052303;28;1910;-69
2022/04/14 06:31:59;;;;;;;;;;;;;;;;;;5051983;28;1120;-69
2022/04/14 06:34:25;;;;;;;;;;;;;;;;;;5051766;28;1156;-69
2022/04/14 06:36:52;;;;;;;;;;;;;;;;;;5051879;28;1130;-69
2022/04/14 06:39:18;;;;;;;;;;;;;;;;;;5052254;28;1274;-70
2022/04/14 06:41:44;;;;;;;;;;;;;;;;;;5052153;28;1016;-70
2022/04/14 06:44:11;;;;;;;;;;;;;;;;;;5052148;28;885;-70
2022/04/14 06:46:37;;;;;;;;;;;;;;;;;;5052124;28;786;-70
2022/04/14 06:49:05;;;;;;;;;;;;;;;;;;5051722;28;1906;-70
2022/04/14 06:51:31;;;;;;;;;;;;;;;;;;5051677;28;921;-70
2022/04/14 06:53:58;;;;;;;;;;;;;;;;;;5051996;28;748;-70
2022/04/14 06:56:24;;;;;;;;;;;;;;;;;;5051593;28;1048;-70
2022/04/14 06:58:50;;;;;;;;;;;;;;;;;;5050225;28;1312;-70
2022/04/14 07:01:16;;;;;;;;;;;;;;;;;;5051613;28;1068;-70
2022/04/14 07:03:43;;;;;;;;;;;;;;;;;;5050618;28;1250;-70
2022/04/14 07:06:10;;;;;;;;;;;;;;;;;;5050698;28;1510;-70
2022/04/14 07:08:38;;;;;;;;;;;;;;;;;;5050970;28;1925;-70
2022/04/14 07:11:04;;;;;;;;;;;;;;;;;;5048555;28;1303;-70
2022/04/14 07:13:31;;;;;;;;;;;;;;;;;;5048803;28;1022;-71
2022/04/14 07:15:57;;;;;;;;;;;;;;;;;;5050401;28;1377;-71
2022/04/14 07:18:24;;;;;;;;;;;;;;;;;;5050728;28;1316;-70
2022/04/14 07:20:50;;;;;;;;;;;;;;;;;;5050722;28;1042;-71
2022/04/14 07:23:18;;;;;;;;;;;;;;;;;;5050880;28;803;-71
2022/04/14 07:25:44;;;;;;;;;;;;;;;;;;5051130;28;936;-71
2022/04/14 07:28:11;;;;;;;;;;;;;;;;;;5050511;28;1415;-71
2022/04/14 07:30:39;;;;;;;;;;;;;;;;;;5032674;28;1981;-71
2022/04/14 07:33:06;;;;;;;;;;;;;;;;;;5050571;28;822;-71
2022/04/14 07:35:32;;;;;;;;;;;;;;;;;;5050544;28;771;-70
2022/04/14 07:37:58;;;;;;;;;;;;;;;;;;5050280;28;1312;-71
2022/04/14 07:40:26;;;;;;;;;;;;;;;;;;5050760;28;776;-71
2022/04/14 07:42:55;;;;;;;;;;;;;;;;;;5050861;28;1190;-71
2022/04/14 07:45:21;;;;;;;;;;;;;;;;;;5050442;28;1115;-71
2022/04/14 07:47:47;;;;;;;;;;;;;;;;;;5050138;28;1326;-71
2022/04/14 07:50:14;;;;;;;;;;;;;;;;;;5050425;28;1922;-70
2022/04/14 07:52:44;;;;;;;;;;;;;;;;;;5049982;28;1079;-71
2022/04/14 07:55:10;;;;;;;;;;;;;;;;;;5050208;28;826;-71
2022/04/14 07:57:38;;;;;;;;;;;;;;;;;;5068487;28;1591;-71
2022/04/14 08:00:05;;;;;;;;;;;;;;;;;;5052619;28;1384;-70
2022/04/14 08:02:45;;;;;;;;;;;;;;;;;;5070618;28;727;-70
2022/04/14 08:05:12;;;;;;;;;;;;;;;;;;5070554;28;953;-70
2022/04/14 08:07:38;;;;;;;;;;;;;;;;;;5070520;28;1558;-70
2022/04/14 08:10:04;;;;;;;;;;;;;;;;;;5070450;28;1979;-70
2022/04/14 08:12:30;;;;;;;;;;;;;;;;;;5074491;28;1080;-70
2022/04/14 08:14:58;;;;;;;;;;;;;;;;;;5077564;28;886;-70
2022/04/14 08:17:24;;;;;;;;;;;;;;;;;;5077576;28;1383;-70
2022/04/14 08:19:50;;;;;;;;;;;;;;;;;;5077327;28;739;-71
2022/04/14 08:22:16;;;;;;;;;;;;;;;;;;5077336;28;1059;-70
2022/04/14 08:24:44;;;;;;;;;;;;;;;;;;5077500;28;1068;-71
2022/04/14 08:27:10;;;;;;;;;;;;;;;;;;5077085;28;1418;-71
2022/04/14 08:29:36;;;;;;;;;;;;;;;;;;5077235;28;1976;-70
2022/04/14 08:32:06;;;;;;;;;;;;;;;;;;5077165;28;1280;-70
2022/04/14 08:34:32;;;;;;;;;;;;;;;;;;5077237;28;1079;-71
2022/04/14 08:36:58;;;;;;;;;;;;;;;;;;5076938;28;1126;-70
2022/04/14 08:39:25;;;;;;;;;;;;;;;;;;5077106;28;1382;-70
2022/04/14 08:41:53;;;;;;;;;;;;;;;;;;5058821;28;1150;-71
2022/04/14 08:44:20;;;;;;;;;;;;;;;;;;5077077;28;1008;-70
2022/04/14 08:46:47;;;;;;;;;;;;;;;;;;5076677;28;1082;-70
2022/04/14 08:49:16;;;;;;;;;;;;;;;;;;5076320;28;1986;-70
2022/04/14 08:51:42;;;;;;;;;;;;;;;;;;5075976;28;1059;-69
2022/04/14 08:54:09;;;;;;;;;;;;;;;;;;5058883;28;1496;-71
2022/04/14 08:56:35;;;;;;;;;;;;;;;;;;5076652;28;1072;-71
2022/04/14 08:59:01;;;;;;;;;;;;;;;;;;5063035;28;1459;-71
2022/04/14 09:01:27;;;;;;;;;;;;;;;;;;5055724;28;1067;-71
2022/04/14 09:03:55;;;;;;;;;;;;;;;;;;5056708;28;1076;-71
2022/04/14 09:06:22;;;;;;;;;;;;;;;;;;5056610;28;961;-71
2022/04/14 09:08:48;;;;;;;;;;;;;;;;;;5056857;28;1313;-71
2022/04/14 09:11:16;;;;;;;;;;;;;;;;;;5038475;28;1918;-71
2022/04/14 09:13:44;;;;;;;;;;;;;;;;;;5056804;28;1071;-70
2022/04/14 09:16:11;;;;;;;;;;;;;;;;;;5056461;28;799;-71
2022/04/14 09:18:37;;;;;;;;;;;;;;;;;;5056311;28;1349;-71
2022/04/14 09:21:06;;;;;;;;;;;;;;;;;;5056563;28;1000;-70
2022/04/14 09:23:35;;;;;;;;;;;;;;;;;;5055453;28;1142;-70
2022/04/14 09:26:11;;;;;;;;;;;;;;;;;;5035796;28;1939;-70
2022/04/14 09:28:37;;;;;;;;;;;;;;;;;;5053482;28;1411;-70
2022/04/14 09:31:04;;;;;;;;;;;;;;;;;;5053167;28;1910;-70
2022/04/14 09:33:31;;;;;;;;;;;;;;;;;;5053524;28;805;-70
2022/04/14 09:36:04;;;;;;;;;;;;;;;;;;5053111;28;954;-69
2022/04/14 09:38:30;;;;;;;;;;;;;;;;;;5053377;28;1304;-70
2022/04/14 09:40:58;;;;;;;;;;;;;;;;;;5035121;28;1298;-70
2022/04/14 09:43:26;;;;;;;;;;;;;;;;;;5053047;28;946;-69
2022/04/14 09:45:52;;;;;;;;;;;;;;;;;;5052892;28;1056;-69
2022/04/14 09:48:20;;;;;;;;;;;;;;;;;;5052840;28;1394;-70
2022/04/14 09:50:47;;;;;;;;;;;;;;;;;;5052836;28;1928;-70
2022/04/14 09:53:14;;;;;;;;;;;;;;;;;;5052959;28;870;-69
2022/04/14 09:55:41;;;;;;;;;;;;;;;;;;5052938;28;842;-69
2022/04/14 09:58:10;;;;;;;;;;;;;;;;;;5052435;28;1384;-70
2022/04/14 10:00:37;;;;;;;;;;;;;;;;;;5052747;28;873;-70
2022/04/14 10:03:07;;;;;;;;;;;;;;;;;;5052523;28;1040;-69
2022/04/14 10:05:34;;;;;;;;;;;;;;;;;;5032812;28;910;-70
2022/04/14 10:08:00;;;;;;;;;;;;;;;;;;5031270;28;1313;-70
2022/04/14 10:10:26;;;;;;;;;;;;;;;;;;5032357;28;1969;-70
2022/04/14 10:12:54;;;;;;;;;;;;;;;;;;5032429;28;929;-70
2022/04/14 10:15:22;;;;;;;;;;;;;;;;;;5032297;28;1076;-70
2022/04/14 10:17:48;;;;;;;;;;;;;;;;;;5032174;28;1345;-69
2022/04/14 10:20:14;;;;;;;;;;;;;;;;;;5032357;28;830;-69
2022/04/14 10:22:41;;;;;;;;;;;;;;;;;;5032437;28;1068;-69
2022/04/14 10:25:08;;;;;;;;;;;;;;;;;;5031471;28;968;-69
2022/04/14 10:27:36;;;;;;;;;;;;;;;;;;5031889;28;1424;-70
2022/04/14 10:30:03;;;;;;;;;;;;;;;;;;5031764;28;1914;-69
2022/04/14 10:32:30;;;;;;;;;;;;;;;;;;5032144;28;787;-69
2022/04/14 10:34:57;;;;;;;;;;;;;;;;;;5031607;28;1012;-69
2022/04/14 10:37:24;;;;;;;;;;;;;;;;;;5032443;28;1325;-69
2022/04/14 10:39:50;;;;;;;;;;;;;;;;;;5014271;28;1227;-69
2022/04/14 10:42:18;;;;;;;;;;;;;;;;;;5032037;28;720;-70
2022/04/14 10:44:44;;;;;;;;;;;;;;;;;;5032381;28;921;-70
2022/04/14 10:47:11;;;;;;;;;;;;;;;;;;5031449;28;1324;-70
2022/04/14 10:49:39;;;;;;;;;;;;;;;;;;5031953;28;1914;-70
2022/04/14 10:52:20;;;;;;;;;;;;;;;;;;5031961;28;980;-70
2022/04/14 10:54:54;;;;;;;;;;;;;;;;;;5031908;28;1455;-70
2022/04/14 10:57:35;;;;;;;;;;;;;;;;;;5036164;28;1513;-70
2022/04/14 11:00:01;;;;;;;;;;;;;;;;;;5051678;28;1071;-71
2022/04/14 11:02:34;;;;;;;;;;;;;;;;;;5051001;28;1247;-70
2022/04/14 11:05:02;;;;;;;;;;;;;;;;;;5050904;28;1255;-70
2022/04/14 11:07:28;;;;;;;;;;;;;;;;;;5050850;28;1491;-70
2022/04/14 11:09:55;;;;;;;;;;;;;;;;;;5050970;28;1895;-70
2022/04/14 11:12:22;;;;;;;;;;;;;;;;;;5051296;28;1111;-71
2022/04/14 11:14:50;;;;;;;;;;;;;;;;;;5037772;28;1294;-70
2022/04/14 11:17:36;;;;;;;;;;;;;;;;;;5050928;28;1392;-69
2022/04/14 11:20:14;;;;;;;;;;;;;;;;;;5051017;28;1056;-70
2022/04/14 11:22:55;;;;;;;;;;;;;;;;;;5050719;28;1250;-69
2022/04/14 11:25:39;;;;;;;;;;;;;;;;;;5050536;28;1169;-71
2022/04/14 11:28:22;;;;;;;;;;;;;;;;;;5050494;28;1610;-70
2022/04/14 11:30:48;;;;;;;;;;;;;;;;;;5050897;28;1922;-70
2022/04/14 11:33:15;;;;;;;;;;;;;;;;;;5051430;28;818;-70
2022/04/14 11:35:45;;;;;;;;;;;;;;;;;;5033006;28;1101;-70
2022/04/14 11:38:26;;;;;;;;;;;;;;;;;;5050559;28;1309;-70
2022/04/14 11:40:55;;;;;;;;;;;;;;;;;;5049964;28;1489;-70
2022/04/14 11:43:21;;;;;;;;;;;;;;;;;;5050981;28;1127;-70
2022/04/14 11:45:48;;;;;;;;;;;;;;;;;;5050791;28;710;-70
2022/04/14 11:48:15;;;;;;;;;;;;;;;;;;5049369;28;1672;-70
2022/04/14 11:50:41;;;;;;;;;;;;;;;;;;5032806;28;1915;-70
2022/04/14 11:53:09;;;;;;;;;;;;;;;;;;5050724;28;1067;-70
2022/04/14 11:55:35;;;;;;;;;;;;;;;;;;5050599;28;1302;-70
2022/04/14 11:58:04;;;;;;;;;;;;;;;;;;5050015;28;1387;-69
2022/04/14 12:00:30;;;;;;;;;;;;;;;;;;5050259;28;911;-69
2022/04/14 12:02:59;;;;;;;;;;;;;;;;;;5050596;28;1088;-70
2022/04/14 12:05:26;;;;;;;;;;;;;;;;;;5065620;22;3512;-70
2022/04/14 12:07:52;;;;;;;;;;;;;;;;;;5066610;28;2042;-70
2022/04/14 12:10:19;;;;;;;;;;;;;;;;;;5067251;28;2081;-71
2022/04/14 12:12:50;;;;;;;;;;;;;;;;;;5067582;28;1810;-72
2022/04/14 12:15:19;;;;;;;;;;;;;;;;;;5059935;28;2002;-70
2022/04/14 12:17:45;;;;;;;;;;;;;;;;;;5048262;28;2663;-69
2022/04/14 12:20:11;;;;;;;;;;;;;;;;;;5048189;28;1887;-72
2022/04/14 12:22:38;;;;;;;;;;;;;;;;;;5046584;28;2192;-71
2022/04/14 12:25:05;;;;;;;;;;;;;;;;;;5045311;28;2249;-70
2022/04/14 12:27:34;;;;;;;;;;;;;;;;;;5047738;28;1944;-72
2022/04/14 12:30:04;;;;;;;;;;;;;;;;;;5030583;28;2070;-72
2022/04/14 12:32:31;;;;;;;;;;;;;;;;;;5045729;28;1744;-72
2022/04/14 12:34:57;;;;;;;;;;;;;;;;;;5047550;28;1783;-72
2022/04/14 12:37:32;;;;;;;;;;;;;;;;;;5049348;28;1607;-72
2022/04/14 12:39:59;;;;;;;;;;;;;;;;;;5047333;28;1907;-72
2022/04/14 12:42:26;;;;;;;;;;;;;;;;;;5048052;28;2002;-70
2022/04/14 12:44:54;;;;;;;;;;;;;;;;;;5049660;28;1317;-72
2022/04/14 12:47:27;;;;;;;;;;;;;;;;;;5048345;28;2077;-72
2022/04/14 12:49:54;;;;;;;;;;;;;;;;;;5047798;28;2053;-71
2022/04/14 12:52:20;;;;;;;;;;;;;;;;;;5048748;28;2010;-70
2022/04/14 12:54:46;;;;;;;;;;;;;;;;;;5047944;28;1844;-69
2022/04/14 12:57:17;;;;;;;;;;;;;;;;;;5049499;28;1229;-71
2022/04/14 12:59:50;;;;;;;;;;;;;;;;;;5053823;28;1111;-72
2022/04/14 13:02:21;;;;;;;;;;;;;;;;;;5050320;28;2418;-71
2022/04/14 13:04:47;;;;;;;;;;;;;;;;;;5051334;28;2030;-72
2022/04/14 13:07:14;;;;;;;;;;;;;;;;;;5050432;28;1811;-72
2022/04/14 13:09:40;;;;;;;;;;;;;;;;;;5050437;28;2137;-72
2022/04/14 13:12:07;;;;;;;;;;;;;;;;;;5050966;28;1965;-72
2022/04/14 13:14:34;;;;;;;;;;;;;;;;;;5053408;28;1138;-71
2022/04/14 13:17:01;;;;;;;;;;;;;;;;;;5053382;28;1349;-70
2022/04/14 13:19:28;;;;;;;;;;;;;;;;;;5052822;28;1127;-71
2022/04/14 13:21:55;;;;;;;;;;;;;;;;;;5053118;28;1103;-71
2022/04/14 13:24:24;;;;;;;;;;;;;;;;;;5053197;28;1060;-71
2022/04/14 13:26:50;;;;;;;;;;;;;;;;;;5052977;28;1369;-72
2022/04/14 13:29:17;;;;;;;;;;;;;;;;;;5053203;28;1104;-72
2022/04/14 13:31:43;;;;;;;;;;;;;;;;;;5053328;28;1973;-72
2022/04/14 13:34:09;;;;;;;;;;;;;;;;;;5052260;28;1955;-72
2022/04/14 13:36:37;;;;;;;;;;;;;;;;;;5052868;28;1399;-71
2022/04/14 13:39:03;;;;;;;;;;;;;;;;;;5053070;28;886;-72
2022/04/14 13:41:30;;;;;;;;;;;;;;;;;;5053020;28;1063;-72
2022/04/14 13:43:56;;;;;;;;;;;;;;;;;;5053170;28;1068;-72
2022/04/14 13:46:23;;;;;;;;;;;;;;;;;;5052589;28;1312;-73
2022/04/14 13:48:49;;;;;;;;;;;;;;;;;;5052967;28;855;-72
2022/04/14 13:51:15;;;;;;;;;;;;;;;;;;5051607;28;1977;-72
2022/04/14 13:53:43;;;;;;;;;;;;;;;;;;5049324;28;1524;-71
2022/04/14 13:56:09;;;;;;;;;;;;;;;;;;5048921;28;1590;-71
2022/04/14 13:58:35;;;;;;;;;;;;;;;;;;5050575;28;1618;-72
2022/04/14 14:01:02;;;;;;;;;;;;;;;;;;5030140;28;1626;-71
2022/04/14 14:03:29;;;;;;;;;;;;;;;;;;5046864;28;1590;-73
2022/04/14 14:05:56;;;;;;;;;;;;;;;;;;5050371;28;1400;-73
2022/04/14 14:08:22;;;;;;;;;;;;;;;;;;5050212;28;1563;-72
2022/04/14 14:10:50;;;;;;;;;;;;;;;;;;5049225;28;1965;-72
2022/04/14 14:13:16;;;;;;;;;;;;;;;;;;5049897;28;1714;-70
2022/04/14 14:15:42;;;;;;;;;;;;;;;;;;5049693;28;1551;-69
2022/04/14 14:18:08;;;;;;;;;;;;;;;;;;5049159;28;1574;-71
2022/04/14 14:20:35;;;;;;;;;;;;;;;;;;5049707;28;1563;-71
2022/04/14 14:23:01;;;;;;;;;;;;;;;;;;5050087;28;1567;-71
2022/04/14 14:25:27;;;;;;;;;;;;;;;;;;5049646;28;1604;-70
2022/04/14 14:27:55;;;;;;;;;;;;;;;;;;5045889;28;1610;-71
2022/04/14 14:30:21;;;;;;;;;;;;;;;;;;5049172;28;1243;-71
2022/04/14 14:32:47;;;;;;;;;;;;;;;;;;5046287;28;1993;-71
2022/04/14 14:35:14;;;;;;;;;;;;;;;;;;5064369;28;1486;-71
2022/04/14 14:37:41;;;;;;;;;;;;;;;;;;5051072;28;1627;-71
2022/04/14 14:40:07;;;;;;;;;;;;;;;;;;5033824;28;1654;-71
2022/04/14 14:42:34;;;;;;;;;;;;;;;;;;5051045;28;1561;-71
2022/04/14 14:45:01;;;;;;;;;;;;;;;;;;5050688;28;1474;-71
2022/04/14 14:47:27;;;;;;;;;;;;;;;;;;5051339;28;802;-70
2022/04/14 14:49:54;;;;;;;;;;;;;;;;;;5048284;28;1920;-71
2022/04/14 14:52:20;;;;;;;;;;;;;;;;;;5033551;28;1918;-70
2022/04/14 14:54:46;;;;;;;;;;;;;;;;;;5051383;28;1338;-69
2022/04/14 14:57:12;;;;;;;;;;;;;;;;;;5051397;28;1036;-71
2022/04/14 14:59:38;;;;;;;;;;;;;;;;;;5050679;28;1559;-71
2022/04/14 15:02:05;;;;;;;;;;;;;;;;;;5033852;28;1587;-70
2022/04/14 15:04:32;;;;;;;;;;;;;;;;;;5051577;28;893;-71
2022/04/14 15:06:58;;;;;;;;;;;;;;;;;;5050565;28;1539;-68
2022/04/14 15:09:24;;;;;;;;;;;;;;;;;;5031509;28;874;-71
2022/04/14 15:11:50;;;;;;;;;;;;;;;;;;5034220;28;1964;-72
2022/04/14 15:14:16;;;;;;;;;;;;;;;;;;5051781;28;1575;-73
2022/04/14 15:16:43;;;;;;;;;;;;;;;;;;5052062;28;1673;-72
2022/04/14 15:19:11;;;;;;;;;;;;;;;;;;5054636;28;1559;-72
2022/04/14 15:21:37;;;;;;;;;;;;;;;;;;5054895;28;1637;-72
2022/04/14 15:24:03;;;;;;;;;;;;;;;;;;5051289;28;1134;-72
2022/04/14 15:26:29;;;;;;;;;;;;;;;;;;5050836;28;1278;-72
2022/04/14 15:28:57;;;;;;;;;;;;;;;;;;5050716;28;949;-72
2022/04/14 15:31:23;;;;;;;;;;;;;;;;;;5050888;28;1919;-72
2022/04/14 15:33:49;;;;;;;;;;;;;;;;;;5050695;28;1149;-72
2022/04/14 15:36:17;;;;;;;;;;;;;;;;;;5050490;28;1347;-71
2022/04/14 15:38:43;;;;;;;;;;;;;;;;;;5050869;28;1114;-72
2022/04/14 15:41:10;;;;;;;;;;;;;;;;;;5049547;28;1158;-72
2022/04/14 15:43:36;;;;;;;;;;;;;;;;;;5050823;28;961;-72
2022/04/14 15:46:04;;;;;;;;;;;;;;;;;;5050255;28;1313;-72
2022/04/14 15:48:30;;;;;;;;;;;;;;;;;;5049482;28;1535;-71
2022/04/14 15:50:57;;;;;;;;;;;;;;;;;;5049944;28;1458;-72
2022/04/14 15:53:25;;;;;;;;;;;;;;;;;;5047102;28;1922;-72
2022/04/14 15:55:52;;;;;;;;;;;;;;;;;;5047524;28;1582;-72
2022/04/14 15:58:19;;;;;;;;;;;;;;;;;;5048225;28;1634;-72
2022/04/14 16:00:45;;;;;;;;;;;;;;;;;;5048614;28;686;-70
2022/04/14 16:03:13;;;;;;;;;;;;;;;;;;5047748;28;1622;-72
2022/04/14 16:05:39;;;;;;;;;;;;;;;;;;5048301;28;1396;-71
2022/04/14 16:08:06;;;;;;;;;;;;;;;;;;5047946;28;1598;-71
2022/04/14 16:13:17;;;;;;;;;;;;;;;;;;5029901;28;1973;-70
2022/04/14 16:15:44;;;;;;;;;;;;;;;;;;5047464;28;1614;-72
2022/04/14 16:18:10;;;;;;;;;;;;;;;;;;5028161;28;1008;-70
2022/04/14 16:20:36;;;;;;;;;;;;;;;;;;5038716;28;1539;-72
2022/04/14 16:23:03;;;;;;;;;;;;;;;;;;5048087;28;941;-71
2022/04/14 16:25:29;;;;;;;;;;;;;;;;;;5047913;28;1571;-72
2022/04/14 16:27:56;;;;;;;;;;;;;;;;;;5047838;28;949;-73
2022/04/14 16:30:24;;;;;;;;;;;;;;;;;;5047292;28;1368;-71
2022/04/14 16:32:52;;;;;;;;;;;;;;;;;;5048174;28;2019;-72
2022/04/14 16:35:18;;;;;;;;;;;;;;;;;;5051248;28;1563;-72
2022/04/14 16:37:45;;;;;;;;;;;;;;;;;;5051359;28;2091;-72
2022/04/14 16:40:11;;;;;;;;;;;;;;;;;;5034152;28;1321;-72
2022/04/14 16:42:38;;;;;;;;;;;;;;;;;;5051277;28;1755;-72
2022/04/14 16:45:06;;;;;;;;;;;;;;;;;;5051682;28;1336;-73
2022/04/14 16:47:32;;;;;;;;;;;;;;;;;;5051423;28;1141;-73
2022/04/14 16:49:58;;;;;;;;;;;;;;;;;;5051261;28;1272;-72
2022/04/14 16:52:24;;;;;;;;;;;;;;;;;;5038814;28;1910;-72
2022/04/14 16:54:52;;;;;;;;;;;;;;;;;;5051304;28;1286;-73
2022/04/14 16:57:18;;;;;;;;;;;;;;;;;;5051223;28;1081;-71
2022/04/14 16:59:44;;;;;;;;;;;;;;;;;;5051156;28;1156;-72
2022/04/14 17:02:12;;;;;;;;;;;;;;;;;;5051602;28;787;-70
2022/04/14 17:04:38;;;;;;;;;;;;;;;;;;5051714;28;1119;-71
2022/04/14 17:07:04;;;;;;;;;;;;;;;;;;5050802;28;1389;-71